createdAt,value
2022-10-31T00:01:31.362Z,17.41
2022-10-31T00:03:57.889Z,17.26
2022-10-31T00:06:25.006Z,17.43
2022-10-31T00:08:56.010Z,17.49
2022-10-31T00:11:22.826Z,17.51
2022-10-31T00:13:49.346Z,17.67
2022-10-31T00:16:16.434Z,17.58
2022-10-31T00:18:43.067Z,17.39
2022-10-31T00:21:09.533Z,17.50
2022-10-31T00:23:36.146Z,17.39
2022-10-31T00:26:04.759Z,17.64
2022-10-31T00:28:31.789Z,17.82
2022-10-31T00:31:00.025Z,17.44
2022-10-31T00:33:26.461Z,17.41
2022-10-31T00:35:52.845Z,17.40
2022-10-31T00:38:19.275Z,17.83
2022-10-31T00:40:45.710Z,17.83
2022-10-31T00:43:13.486Z,17.29
2022-10-31T00:45:39.963Z,17.59
2022-10-31T00:48:06.661Z,17.94
2022-10-31T00:50:33.191Z,17.92
2022-10-31T00:52:59.773Z,17.34
2022-10-31T00:55:26.336Z,17.11
2022-10-31T00:57:52.788Z,17.28
2022-10-31T01:00:21.029Z,17.51
2022-10-31T01:02:47.688Z,17.71
2022-10-31T01:05:14.852Z,17.40
2022-10-31T01:07:42.333Z,17.49
2022-10-31T01:10:10.058Z,17.93
2022-10-31T01:12:37.298Z,17.64
2022-10-31T01:15:05.165Z,17.97
2022-10-31T01:17:33.031Z,17.93
2022-10-31T01:19:59.413Z,17.92
2022-10-31T01:22:25.856Z,17.60
2022-10-31T01:24:52.260Z,17.94
2022-10-31T01:27:18.835Z,17.92
2022-10-31T01:29:45.248Z,17.95
2022-10-31T01:32:11.662Z,18.05
2022-10-31T01:34:40.532Z,17.89
2022-10-31T01:37:09.990Z,17.68
2022-10-31T01:39:36.490Z,17.85
2022-10-31T01:42:03.015Z,17.89
2022-10-31T01:44:52.862Z,17.38
2022-10-31T01:47:22.367Z,17.92
2022-10-31T01:49:53.511Z,17.68
2022-10-31T01:52:23.792Z,17.92
2022-10-31T01:54:55.355Z,17.92
2022-10-31T01:57:22.850Z,17.96
2022-10-31T01:59:52.847Z,17.74
2022-10-31T02:02:20.263Z,17.54
2022-10-31T02:04:48.304Z,17.28
2022-10-31T02:07:21.013Z,17.34
2022-10-31T02:09:50.040Z,17.13
2022-10-31T02:12:18.275Z,17.33
2022-10-31T02:14:45.025Z,17.28
2022-10-31T02:17:11.581Z,17.70
2022-10-31T02:19:52.119Z,17.69
2022-10-31T02:22:27.048Z,17.41
2022-10-31T02:25:07.041Z,17.51
2022-10-31T02:28:16.090Z,17.02
2022-10-31T02:31:08.618Z,17.38
2022-10-31T02:33:42.912Z,17.26
2022-10-31T02:36:18.085Z,17.33
2022-10-31T02:38:57.177Z,17.24
2022-10-31T02:41:35.906Z,17.28
2022-10-31T02:44:10.216Z,17.42
2022-10-31T02:46:45.049Z,17.16
2022-10-31T02:49:23.740Z,17.13
2022-10-31T02:51:51.192Z,17.12
2022-10-31T02:54:24.158Z,17.35
2022-10-31T02:56:53.457Z,17.44
2022-10-31T02:59:20.607Z,17.34
2022-10-31T03:02:01.885Z,17.21
2022-10-31T03:05:14.657Z,17.07
2022-10-31T03:07:48.115Z,16.94
2022-10-31T03:10:21.016Z,16.99
2022-10-31T03:12:55.975Z,16.91
2022-10-31T03:15:27.842Z,17.40
2022-10-31T03:18:09.353Z,17.14
2022-10-31T03:20:41.049Z,17.11
2022-10-31T03:23:12.179Z,17.17
2022-10-31T03:25:40.338Z,16.76
2022-10-31T03:28:08.116Z,17.11
2022-10-31T03:30:38.287Z,16.82
2022-10-31T03:33:10.731Z,16.81
2022-10-31T03:35:39.757Z,16.86
2022-10-31T03:38:08.053Z,17.03
2022-10-31T03:40:37.732Z,16.84
2022-10-31T03:43:08.605Z,17.05
2022-10-31T03:45:38.695Z,17.00
2022-10-31T03:48:06.874Z,16.56
2022-10-31T03:50:39.946Z,16.69
2022-10-31T03:53:12.619Z,16.45
2022-10-31T03:55:44.394Z,16.56
2022-10-31T04:00:52.723Z,16.71
2022-10-31T04:03:26.122Z,16.84
2022-10-31T04:05:55.889Z,16.88
2022-10-31T04:08:27.760Z,16.88
2022-10-31T04:10:56.948Z,17.03
2022-10-31T04:13:27.838Z,16.61
2022-10-31T04:15:55.894Z,16.72
2022-10-31T04:18:24.992Z,16.77
2022-10-31T04:21:01.139Z,16.57
2022-10-31T04:23:27.808Z,16.65
2022-10-31T04:25:54.233Z,16.74
2022-10-31T04:28:20.677Z,16.52
2022-10-31T04:30:47.116Z,16.51
2022-10-31T04:33:13.531Z,16.62
2022-10-31T04:35:41.338Z,16.51
2022-10-31T04:38:07.801Z,16.58
2022-10-31T04:40:34.223Z,16.38
2022-10-31T04:43:00.961Z,16.37
2022-10-31T04:45:27.890Z,16.31
2022-10-31T04:47:54.266Z,16.22
2022-10-31T04:50:20.800Z,16.52
2022-10-31T04:52:48.570Z,15.85
2022-10-31T04:55:15.120Z,16.16
2022-10-31T04:57:42.382Z,16.16
2022-10-31T05:00:10.030Z,15.52
2022-10-31T05:02:44.668Z,15.74
2022-10-31T05:05:11.563Z,15.50
2022-10-31T05:07:39.746Z,15.56
2022-10-31T05:10:08.777Z,15.35
2022-10-31T05:12:35.181Z,15.60
2022-10-31T05:15:01.623Z,15.81
2022-10-31T05:17:28.005Z,15.66
2022-10-31T05:19:54.412Z,15.63
2022-10-31T05:22:20.817Z,15.88
2022-10-31T05:24:48.141Z,15.76
2022-10-31T05:27:16.287Z,15.71
2022-10-31T05:29:42.711Z,15.76
2022-10-31T05:32:09.130Z,16.06
2022-10-31T05:34:35.541Z,14.91
2022-10-31T05:37:02.021Z,15.31
2022-10-31T05:39:28.431Z,15.19
2022-10-31T05:41:54.886Z,15.53
2022-10-31T05:44:22.737Z,15.42
2022-10-31T05:46:49.203Z,15.31
2022-10-31T05:49:15.925Z,15.48
2022-10-31T05:51:42.448Z,15.46
2022-10-31T05:54:13.301Z,15.60
2022-10-31T05:56:42.232Z,15.22
2022-10-31T05:59:08.715Z,15.39
2022-10-31T06:01:36.514Z,15.47
2022-10-31T06:04:02.969Z,15.34
2022-10-31T06:06:29.349Z,15.38
2022-10-31T06:08:55.894Z,15.31
2022-10-31T06:11:22.307Z,15.38
2022-10-31T06:13:48.890Z,14.87
2022-10-31T06:16:15.293Z,15.40
2022-10-31T06:18:43.037Z,14.81
2022-10-31T06:21:10.773Z,15.21
2022-10-31T06:23:39.018Z,15.26
2022-10-31T06:26:05.601Z,15.28
2022-10-31T06:28:32.014Z,15.33
2022-10-31T06:30:58.414Z,15.69
2022-10-31T06:33:25.256Z,15.54
2022-10-31T06:35:53.031Z,15.63
2022-10-31T06:38:19.483Z,15.80
2022-10-31T06:40:45.961Z,15.68
2022-10-31T06:43:12.359Z,15.38
2022-10-31T06:45:38.818Z,14.70
2022-10-31T06:48:21.744Z,15.05
2022-10-31T06:50:48.510Z,15.20
2022-10-31T06:53:16.553Z,14.74
2022-10-31T06:55:43.402Z,15.02
2022-10-31T06:58:11.608Z,15.48
2022-10-31T07:00:38.165Z,14.69
2022-10-31T07:03:06.604Z,14.91
2022-10-31T07:05:33.394Z,14.71
2022-10-31T07:08:01.759Z,14.94
2022-10-31T07:10:37.251Z,15.20
2022-10-31T07:13:09.468Z,15.32
2022-10-31T07:15:39.310Z,15.10
2022-10-31T07:18:09.037Z,15.32
2022-10-31T07:20:35.825Z,15.70
2022-10-31T07:23:02.575Z,15.77
2022-10-31T07:25:30.733Z,15.82
2022-10-31T07:27:57.516Z,15.19
2022-10-31T07:30:24.136Z,15.26
2022-10-31T07:32:51.539Z,15.29
2022-10-31T07:35:20.522Z,14.77
2022-10-31T07:37:47.329Z,14.96
2022-10-31T07:40:14.038Z,15.46
2022-10-31T07:42:43.028Z,15.39
2022-10-31T07:45:11.629Z,15.71
2022-10-31T07:47:40.894Z,15.52
2022-10-31T07:50:08.896Z,15.62
2022-10-31T07:52:35.278Z,15.68
2022-10-31T07:55:02.032Z,15.83
2022-10-31T07:57:34.228Z,15.83
2022-10-31T08:00:03.335Z,15.86
2022-10-31T08:02:29.775Z,16.08
2022-10-31T08:04:58.681Z,15.93
2022-10-31T08:07:27.791Z,15.31
2022-10-31T08:09:54.453Z,15.83
2022-10-31T08:12:21.056Z,16.13
2022-10-31T08:14:47.799Z,16.10
2022-10-31T08:17:15.549Z,16.25
2022-10-31T08:19:41.920Z,16.20
2022-10-31T08:22:08.358Z,16.59
2022-10-31T08:24:34.808Z,16.05
2022-10-31T08:27:01.241Z,16.68
2022-10-31T08:29:27.756Z,16.66
2022-10-31T08:31:54.183Z,16.75
2022-10-31T08:34:21.930Z,16.91
2022-10-31T08:36:48.334Z,16.70
2022-10-31T08:39:14.744Z,16.70
2022-10-31T08:41:41.186Z,16.98
2022-10-31T08:44:07.587Z,16.84
2022-10-31T08:46:34.004Z,16.62
2022-10-31T08:49:00.445Z,16.94
2022-10-31T08:51:28.175Z,16.78
2022-10-31T08:53:54.598Z,17.09
2022-10-31T08:56:20.995Z,17.06
2022-10-31T08:58:47.377Z,17.12
2022-10-31T09:01:14.054Z,17.09
2022-10-31T09:03:40.555Z,17.03
2022-10-31T09:06:07.374Z,16.84
2022-10-31T09:08:36.163Z,17.43
2022-10-31T09:11:03.571Z,17.66
2022-10-31T09:13:30.603Z,17.58
2022-10-31T09:15:58.065Z,17.35
2022-10-31T09:18:24.629Z,17.40
2022-10-31T09:20:51.563Z,17.69
2022-10-31T09:23:19.942Z,17.96
2022-10-31T09:25:50.795Z,17.85
2022-10-31T09:28:19.106Z,17.56
2022-10-31T09:30:47.818Z,17.64
2022-10-31T09:33:14.705Z,17.07
2022-10-31T09:35:42.160Z,16.61
2022-10-31T09:38:11.117Z,17.19
2022-10-31T09:40:39.398Z,17.50
2022-10-31T09:43:15.760Z,17.76
2022-10-31T09:45:51.635Z,17.42
2022-10-31T09:48:32.021Z,18.54
2022-10-31T09:51:01.210Z,18.47
2022-10-31T09:53:34.942Z,17.86
2022-10-31T09:56:05.608Z,18.21
2022-10-31T09:58:39.081Z,17.85
2022-10-31T10:01:06.331Z,18.19
2022-10-31T10:03:40.197Z,17.57
2022-10-31T10:06:14.641Z,17.85
2022-10-31T10:08:41.221Z,18.05
2022-10-31T10:11:23.654Z,18.65
2022-10-31T10:14:02.238Z,18.10
2022-10-31T10:16:52.677Z,17.80
2022-10-31T10:19:43.566Z,18.46
2022-10-31T10:22:17.029Z,18.40
2022-10-31T10:25:01.430Z,18.69
2022-10-31T10:27:47.703Z,18.62
2022-10-31T10:30:18.344Z,17.89
2022-10-31T10:32:51.908Z,18.44
2022-10-31T10:35:24.174Z,18.24
2022-10-31T10:37:54.995Z,18.00
2022-10-31T10:40:24.573Z,17.55
2022-10-31T10:42:58.937Z,17.40
2022-10-31T10:45:26.887Z,17.58
2022-10-31T10:48:05.666Z,17.75
2022-10-31T10:50:37.213Z,18.00
2022-10-31T10:53:17.321Z,18.43
2022-10-31T10:55:53.144Z,18.87
2022-10-31T10:58:19.626Z,18.58
2022-10-31T11:00:48.279Z,18.41
2022-10-31T11:03:15.440Z,18.53
2022-10-31T11:05:46.084Z,17.88
2022-10-31T11:08:27.686Z,17.74
2022-10-31T11:10:59.822Z,17.48
2022-10-31T11:13:26.314Z,17.68
2022-10-31T11:15:59.288Z,17.44
2022-10-31T11:18:27.873Z,17.86
2022-10-31T11:20:56.339Z,17.63
2022-10-31T11:23:24.230Z,18.01
2022-10-31T11:25:53.634Z,18.06
2022-10-31T11:28:20.097Z,18.31
2022-10-31T11:30:48.734Z,18.83
2022-10-31T11:33:21.620Z,18.06
2022-10-31T11:35:50.917Z,17.81
2022-10-31T11:38:22.806Z,18.41
2022-10-31T11:40:54.208Z,18.68
2022-10-31T11:43:20.938Z,18.58
2022-10-31T11:45:47.662Z,17.99
2022-10-31T11:48:20.098Z,18.48
2022-10-31T11:50:50.366Z,18.41
2022-10-31T11:53:19.163Z,17.75
2022-10-31T11:55:46.840Z,17.92
2022-10-31T11:58:24.544Z,17.98
2022-10-31T12:00:53.356Z,17.63
2022-10-31T12:03:34.307Z,17.95
2022-10-31T12:06:04.429Z,18.27
2022-10-31T12:08:34.184Z,18.37
2022-10-31T12:11:12.139Z,18.25
2022-10-31T12:13:46.522Z,18.43
2022-10-31T12:16:19.835Z,18.28
2022-10-31T12:19:01.575Z,18.31
2022-10-31T12:21:42.122Z,18.30
2022-10-31T12:24:20.821Z,17.92
2022-10-31T12:26:56.461Z,18.14
2022-10-31T12:29:36.698Z,17.87
2022-10-31T12:32:18.747Z,17.95
2022-10-31T12:35:09.295Z,17.83
2022-10-31T12:37:49.366Z,18.08
2022-10-31T12:40:37.034Z,18.37
2022-10-31T12:43:18.208Z,17.98
2022-10-31T12:45:53.364Z,17.91
2022-10-31T12:48:43.605Z,17.79
2022-10-31T12:51:20.356Z,18.13
2022-10-31T12:54:06.956Z,18.34
2022-10-31T12:56:43.550Z,18.20
2022-10-31T12:59:13.144Z,18.30
2022-10-31T13:01:47.242Z,18.01
2022-10-31T13:04:20.535Z,17.85
2022-10-31T13:06:53.826Z,17.82
2022-10-31T13:09:27.368Z,17.90
2022-10-31T13:11:57.807Z,17.75
2022-10-31T13:14:27.893Z,18.09
2022-10-31T13:16:56.533Z,17.77
2022-10-31T13:19:26.439Z,18.05
2022-10-31T13:22:00.828Z,17.79
2022-10-31T13:24:34.753Z,17.95
2022-10-31T13:27:10.942Z,17.86
2022-10-31T13:29:42.973Z,17.78
2022-10-31T13:32:11.233Z,17.76
2022-10-31T13:34:40.380Z,18.17
2022-10-31T13:37:17.360Z,18.00
2022-10-31T13:39:56.086Z,17.77
2022-10-31T13:42:30.821Z,18.17
2022-10-31T13:45:12.292Z,17.77
2022-10-31T13:47:38.901Z,18.15
2022-10-31T13:50:19.508Z,18.17
2022-10-31T13:52:47.774Z,17.69
2022-10-31T13:55:42.333Z,17.85
2022-10-31T13:58:27.647Z,17.54
2022-10-31T14:01:16.144Z,17.64
2022-10-31T14:06:39.534Z,17.74
2022-10-31T14:09:19.725Z,17.67
2022-10-31T14:11:48.162Z,17.51
2022-10-31T14:14:15.645Z,17.42
2022-10-31T14:16:45.163Z,17.52
2022-10-31T14:19:17.038Z,17.45
2022-10-31T14:21:45.454Z,17.20
2022-10-31T14:24:35.343Z,17.40
2022-10-31T14:27:04.383Z,16.95
2022-10-31T14:29:31.880Z,17.16
2022-10-31T14:32:05.305Z,17.20
2022-10-31T14:34:35.070Z,17.13
2022-10-31T14:37:35.476Z,17.04
2022-10-31T14:40:18.118Z,17.11
2022-10-31T14:43:02.791Z,17.07
2022-10-31T14:45:38.149Z,16.76
2022-10-31T14:48:15.203Z,16.83
2022-10-31T14:50:47.088Z,16.54
2022-10-31T14:53:19.276Z,16.64
2022-10-31T14:55:50.057Z,16.62
2022-10-31T14:58:21.176Z,16.92
2022-10-31T15:00:48.177Z,16.99
2022-10-31T15:03:17.643Z,16.66
2022-10-31T15:05:49.985Z,16.61
2022-10-31T15:08:30.073Z,16.29
2022-10-31T15:10:57.922Z,16.44
2022-10-31T15:13:24.465Z,16.20
2022-10-31T15:15:54.975Z,16.53
2022-10-31T15:18:24.274Z,16.26
2022-10-31T15:20:52.175Z,16.37
2022-10-31T15:23:25.145Z,16.24
2022-10-31T15:25:58.671Z,16.07
2022-10-31T15:28:26.990Z,16.28
2022-10-31T15:30:55.503Z,16.20
2022-10-31T15:33:25.334Z,15.98
2022-10-31T15:35:56.410Z,15.97
2022-10-31T15:38:22.888Z,16.08
2022-10-31T15:40:55.501Z,15.65
2022-10-31T15:43:22.515Z,15.92
2022-10-31T15:45:50.591Z,15.77
2022-10-31T15:48:18.976Z,15.90
2022-10-31T15:50:49.570Z,15.78
2022-10-31T15:53:19.977Z,15.98
2022-10-31T15:55:49.915Z,15.92
2022-10-31T15:58:17.804Z,15.66
2022-10-31T16:00:44.570Z,15.47
2022-10-31T16:03:26.715Z,15.57
2022-10-31T16:05:55.254Z,15.51
2022-10-31T16:08:25.127Z,15.85
2022-10-31T16:10:51.829Z,15.70
2022-10-31T16:13:18.453Z,15.77
2022-10-31T16:15:55.797Z,15.79
2022-10-31T16:18:37.227Z,15.52
2022-10-31T16:21:04.102Z,15.79
2022-10-31T16:23:30.635Z,15.68
2022-10-31T16:25:57.141Z,15.68
2022-10-31T16:28:28.295Z,15.77
2022-10-31T16:30:57.921Z,15.74
2022-10-31T16:33:27.943Z,15.90
2022-10-31T16:36:09.536Z,15.81
2022-10-31T16:38:42.500Z,16.33
2022-10-31T16:41:08.946Z,16.06
2022-10-31T16:43:35.672Z,16.04
2022-10-31T16:46:02.135Z,15.59
2022-10-31T16:48:28.607Z,15.77
2022-10-31T16:50:56.348Z,15.80
2022-10-31T16:53:22.918Z,16.11
2022-10-31T16:55:56.561Z,15.78
2022-10-31T16:58:24.139Z,15.88
2022-10-31T17:00:51.112Z,15.92
2022-10-31T17:03:17.663Z,15.91
2022-10-31T17:05:44.505Z,15.87
2022-10-31T17:08:12.787Z,16.20
2022-10-31T17:10:40.498Z,16.04
2022-10-31T17:13:11.121Z,15.75
2022-10-31T17:15:41.227Z,15.87
2022-10-31T17:18:07.641Z,15.74
2022-10-31T17:20:34.059Z,15.68
2022-10-31T17:23:00.808Z,15.57
2022-10-31T17:25:30.406Z,16.09
2022-10-31T17:27:56.873Z,16.07
2022-10-31T17:30:33.452Z,15.93
2022-10-31T17:33:00.170Z,16.05
2022-10-31T17:35:26.923Z,16.08
2022-10-31T17:37:53.335Z,16.14
2022-10-31T17:40:21.656Z,16.07
2022-10-31T17:42:53.975Z,16.25
2022-10-31T17:45:21.657Z,16.27
2022-10-31T17:47:48.839Z,16.50
2022-10-31T17:50:19.270Z,16.72
2022-10-31T17:52:45.943Z,16.68
2022-10-31T17:55:12.908Z,16.74
2022-10-31T17:57:39.729Z,16.20
2022-10-31T18:00:11.750Z,16.35
2022-10-31T18:02:38.299Z,16.03
2022-10-31T18:05:05.638Z,15.96
2022-10-31T18:07:32.198Z,15.97
2022-10-31T18:09:58.878Z,16.21
2022-10-31T18:12:25.634Z,16.28
2022-10-31T18:14:52.068Z,16.57
2022-10-31T18:17:20.215Z,16.61
2022-10-31T18:19:46.718Z,16.23
2022-10-31T18:22:13.740Z,15.70
2022-10-31T18:24:40.193Z,15.77
2022-10-31T18:27:06.990Z,16.46
2022-10-31T18:29:33.586Z,16.01
2022-10-31T18:31:59.979Z,16.37
2022-10-31T18:34:27.713Z,16.74
2022-10-31T18:36:54.136Z,16.77
2022-10-31T18:39:20.503Z,16.74
2022-10-31T18:41:46.893Z,16.51
2022-10-31T18:44:13.310Z,16.94
2022-10-31T18:46:39.697Z,16.54
2022-10-31T18:49:06.078Z,16.63
2022-10-31T18:51:33.843Z,16.79
2022-10-31T18:54:01.215Z,16.70
2022-10-31T18:56:29.053Z,16.11
2022-10-31T18:58:55.484Z,15.84
2022-10-31T19:01:22.333Z,15.78
2022-10-31T19:03:53.051Z,16.19
2022-10-31T19:06:19.610Z,15.98
2022-10-31T19:08:47.366Z,15.93
2022-10-31T19:11:15.126Z,15.78
2022-10-31T19:13:42.572Z,15.98
2022-10-31T19:16:10.981Z,16.17
2022-10-31T19:18:38.392Z,15.96
2022-10-31T19:21:06.112Z,15.69
2022-10-31T19:23:32.542Z,15.60
2022-10-31T19:26:00.453Z,15.57
2022-10-31T19:28:29.473Z,15.88
2022-10-31T19:30:55.890Z,15.83
2022-10-31T19:33:22.441Z,15.47
2022-10-31T19:35:48.878Z,15.55
2022-10-31T19:38:15.265Z,15.70
2022-10-31T19:40:41.682Z,15.39
2022-10-31T19:43:09.648Z,15.64
2022-10-31T19:45:36.045Z,15.46
2022-10-31T19:48:02.831Z,15.57
2022-10-31T19:50:29.757Z,15.23
2022-10-31T19:52:56.196Z,15.33
2022-10-31T19:55:22.646Z,15.25
2022-10-31T19:58:01.330Z,15.34
2022-10-31T20:00:29.866Z,15.27
2022-10-31T20:02:56.270Z,15.03
2022-10-31T20:05:22.699Z,14.95
2022-10-31T20:07:49.114Z,15.34
2022-10-31T20:10:15.718Z,15.40
2022-10-31T20:12:42.127Z,15.57
2022-10-31T20:15:09.322Z,15.68
2022-10-31T20:17:37.130Z,15.38
2022-10-31T20:20:04.230Z,15.08
2022-10-31T20:22:30.717Z,14.94
2022-10-31T20:24:57.138Z,14.86
2022-10-31T20:27:23.868Z,15.12
2022-10-31T20:29:50.234Z,14.67
2022-10-31T20:32:16.813Z,14.73
2022-10-31T20:34:44.643Z,14.93
2022-10-31T20:37:11.106Z,15.26
2022-10-31T20:39:37.897Z,15.09
2022-10-31T20:42:05.218Z,15.12
2022-10-31T20:44:31.991Z,15.19
2022-10-31T20:46:58.691Z,15.10
2022-10-31T20:49:25.317Z,15.05
2022-10-31T20:51:53.066Z,15.07
2022-10-31T20:54:19.489Z,14.93
2022-10-31T20:56:45.994Z,15.22
2022-10-31T20:59:12.426Z,15.45
2022-10-31T21:01:39.071Z,15.45
2022-10-31T21:04:05.704Z,15.21
2022-10-31T21:06:32.149Z,15.31
2022-10-31T21:08:59.909Z,15.41
2022-10-31T21:11:27.791Z,15.44
2022-10-31T21:13:54.468Z,14.98
2022-10-31T21:16:22.845Z,15.06
2022-10-31T21:18:50.080Z,14.76
2022-10-31T21:21:18.704Z,15.15
2022-10-31T21:23:45.693Z,15.57
2022-10-31T21:26:16.070Z,15.39
2022-10-31T21:28:42.852Z,15.95
2022-10-31T21:31:11.070Z,15.75
2022-10-31T21:33:37.989Z,15.74
2022-10-31T21:36:05.590Z,15.88
2022-10-31T21:38:32.708Z,15.40
2022-10-31T21:40:59.835Z,15.24
2022-10-31T21:43:27.858Z,15.14
2022-10-31T21:45:54.384Z,14.89
2022-10-31T21:48:20.879Z,14.90
2022-10-31T21:50:47.299Z,14.93
2022-10-31T21:53:13.686Z,14.90
2022-10-31T21:55:40.115Z,15.41
2022-10-31T21:58:06.538Z,15.19
2022-10-31T22:00:34.271Z,14.96
2022-10-31T22:03:01.601Z,15.49
2022-10-31T22:05:28.042Z,15.56
2022-10-31T22:07:54.444Z,14.77
2022-10-31T22:10:20.841Z,14.82
2022-10-31T22:12:47.227Z,14.71
2022-10-31T22:15:14.090Z,14.87
2022-10-31T22:17:41.842Z,14.64
2022-10-31T22:20:09.211Z,14.87
2022-10-31T22:22:35.629Z,14.82
2022-10-31T22:25:02.014Z,14.58
2022-10-31T22:27:28.384Z,14.66
2022-10-31T22:29:56.651Z,14.98
2022-10-31T22:32:23.248Z,14.96
2022-10-31T22:34:50.962Z,14.65
2022-10-31T22:37:19.693Z,14.46
2022-10-31T22:39:46.389Z,14.50
2022-10-31T22:42:12.789Z,14.67
2022-10-31T22:44:39.206Z,14.35
2022-10-31T22:47:05.613Z,14.34
2022-10-31T22:49:32.009Z,14.53
2022-10-31T22:51:59.793Z,14.28
2022-10-31T22:54:26.534Z,14.15
2022-10-31T22:56:52.929Z,14.53
2022-10-31T22:59:19.386Z,14.70
2022-10-31T23:01:46.269Z,14.50
2022-10-31T23:04:13.747Z,14.97
2022-10-31T23:06:40.198Z,14.55
2022-10-31T23:09:08.886Z,14.39
2022-10-31T23:11:38.820Z,14.94
2022-10-31T23:14:07.037Z,14.64
2022-10-31T23:16:34.289Z,14.75
2022-10-31T23:19:01.795Z,14.61
2022-10-31T23:21:28.300Z,14.84
2022-10-31T23:23:55.375Z,14.64
2022-10-31T23:26:23.132Z,14.79
2022-10-31T23:28:49.568Z,14.58
2022-10-31T23:31:15.984Z,14.67
2022-10-31T23:33:42.407Z,14.67
2022-10-31T23:36:09.146Z,14.74
2022-10-31T23:38:35.536Z,15.14
2022-10-31T23:41:01.970Z,14.94
2022-10-31T23:43:29.707Z,14.84
2022-10-31T23:45:56.096Z,14.85
2022-10-31T23:48:22.485Z,14.63
2022-10-31T23:50:49.095Z,14.88
2022-10-31T23:53:15.501Z,14.77
2022-10-31T23:55:41.915Z,15.14
2022-10-31T23:58:08.319Z,15.43
